sensor_id;sensor_type;location;lat;lon;timestamp;P1;durP1;ratioP1;P2;durP2;ratioP2
68319;SDS011;55168;51.120;17.024;2023-03-03T00:00:01;91.4;;;43.0;;
68319;SDS011;55168;51.120;17.024;2023-03-03T00:01:00;91.4;;;43.0;;
68319;SDS011;55168;51.120;17.024;2023-03-03T00:02:00;85.6;;;42.2;;
68319;SDS011;55168;51.120;17.024;2023-03-03T00:03:04;85.6;;;42.2;;
68319;SDS011;55168;51.120;17.024;2023-03-03T00:04:00;85.6;;;42.2;;
68319;SDS011;55168;51.120;17.024;2023-03-03T00:05:00;85.6;;;42.2;;
68319;SDS011;55168;51.120;17.024;2023-03-03T00:06:01;85.6;;;42.2;;
68319;SDS011;55168;51.120;17.024;2023-03-03T00:07:00;85.3;;;42.7;;
68319;SDS011;55168;51.120;17.024;2023-03-03T00:08:01;85.3;;;42.7;;
68319;SDS011;55168;51.120;17.024;2023-03-03T00:09:00;85.3;;;42.7;;
68319;SDS011;55168;51.120;17.024;2023-03-03T00:10:00;85.3;;;42.7;;
68319;SDS011;55168;51.120;17.024;2023-03-03T00:11:00;85.3;;;42.7;;
68319;SDS011;55168;51.120;17.024;2023-03-03T00:12:00;87.0;;;41.1;;
68319;SDS011;55168;51.120;17.024;2023-03-03T00:13:00;87.0;;;41.1;;
68319;SDS011;55168;51.120;17.024;2023-03-03T00:14:00;87.0;;;41.1;;
68319;SDS011;55168;51.120;17.024;2023-03-03T00:15:00;87.0;;;41.1;;
68319;SDS011;55168;51.120;17.024;2023-03-03T00:16:11;87.0;;;41.1;;
68319;SDS011;55168;51.120;17.024;2023-03-03T00:17:10;97.1;;;42.9;;
68319;SDS011;55168;51.120;17.024;2023-03-03T00:18:00;97.1;;;42.9;;
68319;SDS011;55168;51.120;17.024;2023-03-03T00:19:00;97.1;;;42.9;;
68319;SDS011;55168;51.120;17.024;2023-03-03T00:20:01;97.1;;;42.9;;
68319;SDS011;55168;51.120;17.024;2023-03-03T00:21:01;97.1;;;42.9;;
68319;SDS011;55168;51.120;17.024;2023-03-03T00:22:00;79.5;;;38.7;;
68319;SDS011;55168;51.120;17.024;2023-03-03T00:26:00;79.5;;;38.7;;
68319;SDS011;55168;51.120;17.024;2023-03-03T00:27:09;78.5;;;36.8;;
68319;SDS011;55168;51.120;17.024;2023-03-03T00:28:06;78.5;;;36.8;;
68319;SDS011;55168;51.120;17.024;2023-03-03T00:29:00;78.5;;;36.8;;
68319;SDS011;55168;51.120;17.024;2023-03-03T00:30:00;78.5;;;36.8;;
68319;SDS011;55168;51.120;17.024;2023-03-03T00:31:01;78.5;;;36.8;;
68319;SDS011;55168;51.120;17.024;2023-03-03T00:33:00;86.2;;;34.9;;
68319;SDS011;55168;51.120;17.024;2023-03-03T00:34:18;86.2;;;34.9;;
68319;SDS011;55168;51.120;17.024;2023-03-03T00:35:26;86.2;;;34.9;;
68319;SDS011;55168;51.120;17.024;2023-03-03T00:37:00;78.4;;;33.5;;
68319;SDS011;55168;51.120;17.024;2023-03-03T00:38:09;78.4;;;33.5;;
68319;SDS011;55168;51.120;17.024;2023-03-03T00:40:15;78.4;;;33.5;;
68319;SDS011;55168;51.120;17.024;2023-03-03T00:41:00;78.4;;;33.5;;
68319;SDS011;55168;51.120;17.024;2023-03-03T00:42:00;70.5;;;35.3;;
68319;SDS011;55168;51.120;17.024;2023-03-03T00:43:01;70.5;;;35.3;;
68319;SDS011;55168;51.120;17.024;2023-03-03T00:44:32;70.5;;;35.3;;
68319;SDS011;55168;51.120;17.024;2023-03-03T00:45:00;70.5;;;35.3;;
68319;SDS011;55168;51.120;17.024;2023-03-03T00:46:00;70.5;;;35.3;;
68319;SDS011;55168;51.120;17.024;2023-03-03T00:47:13;71.0;;;34.2;;
68319;SDS011;55168;51.120;17.024;2023-03-03T00:48:10;71.0;;;34.2;;
68319;SDS011;55168;51.120;17.024;2023-03-03T00:49:00;71.0;;;34.2;;
68319;SDS011;55168;51.120;17.024;2023-03-03T00:51:07;71.0;;;34.2;;
68319;SDS011;55168;51.120;17.024;2023-03-03T00:52:00;70.6;;;34.0;;
68319;SDS011;55168;51.120;17.024;2023-03-03T00:53:02;70.6;;;34.0;;
68319;SDS011;55168;51.120;17.024;2023-03-03T00:54:00;70.6;;;34.0;;
68319;SDS011;55168;51.120;17.024;2023-03-03T00:55:00;70.6;;;34.0;;
68319;SDS011;55168;51.120;17.024;2023-03-03T00:56:00;70.6;;;34.0;;
68319;SDS011;55168;51.120;17.024;2023-03-03T00:57:00;62.1;;;33.3;;
68319;SDS011;55168;51.120;17.024;2023-03-03T00:58:00;62.1;;;33.3;;
68319;SDS011;55168;51.120;17.024;2023-03-03T00:59:00;62.1;;;33.3;;
68319;SDS011;55168;51.120;17.024;2023-03-03T01:00:00;62.1;;;33.3;;
68319;SDS011;55168;51.120;17.024;2023-03-03T01:01:00;62.1;;;33.3;;
68319;SDS011;55168;51.120;17.024;2023-03-03T01:02:00;67.5;;;32.5;;
68319;SDS011;55168;51.120;17.024;2023-03-03T01:03:03;67.5;;;32.5;;
68319;SDS011;55168;51.120;17.024;2023-03-03T01:04:00;67.5;;;32.5;;
68319;SDS011;55168;51.120;17.024;2023-03-03T01:05:00;67.5;;;32.5;;
68319;SDS011;55168;51.120;17.024;2023-03-03T01:06:00;67.5;;;32.5;;
68319;SDS011;55168;51.120;17.024;2023-03-03T01:07:00;60.2;;;31.7;;
68319;SDS011;55168;51.120;17.024;2023-03-03T01:08:01;60.2;;;31.7;;
68319;SDS011;55168;51.120;17.024;2023-03-03T01:09:00;60.2;;;31.7;;
68319;SDS011;55168;51.120;17.024;2023-03-03T01:10:00;60.2;;;31.7;;
68319;SDS011;55168;51.120;17.024;2023-03-03T01:11:06;60.2;;;31.7;;
68319;SDS011;55168;51.120;17.024;2023-03-03T01:12:00;65.3;;;31.0;;
68319;SDS011;55168;51.120;17.024;2023-03-03T01:13:00;65.3;;;31.0;;
68319;SDS011;55168;51.120;17.024;2023-03-03T01:14:00;65.3;;;31.0;;
68319;SDS011;55168;51.120;17.024;2023-03-03T01:15:00;65.3;;;31.0;;
68319;SDS011;55168;51.120;17.024;2023-03-03T01:16:01;65.3;;;31.0;;
68319;SDS011;55168;51.120;17.024;2023-03-03T01:17:00;56.1;;;30.8;;
68319;SDS011;55168;51.120;17.024;2023-03-03T01:18:00;56.1;;;30.8;;
68319;SDS011;55168;51.120;17.024;2023-03-03T01:19:00;56.1;;;30.8;;
68319;SDS011;55168;51.120;17.024;2023-03-03T01:20:00;56.1;;;30.8;;
68319;SDS011;55168;51.120;17.024;2023-03-03T01:21:00;56.1;;;30.8;;
68319;SDS011;55168;51.120;17.024;2023-03-03T01:22:00;58.1;;;30.9;;
68319;SDS011;55168;51.120;17.024;2023-03-03T01:23:00;58.1;;;30.9;;
68319;SDS011;55168;51.120;17.024;2023-03-03T01:24:00;58.1;;;30.9;;
68319;SDS011;55168;51.120;17.024;2023-03-03T01:25:00;58.1;;;30.9;;
68319;SDS011;55168;51.120;17.024;2023-03-03T01:26:00;58.1;;;30.9;;
68319;SDS011;55168;51.120;17.024;2023-03-03T01:27:00;53.1;;;30.0;;
68319;SDS011;55168;51.120;17.024;2023-03-03T01:28:00;53.1;;;30.0;;
68319;SDS011;55168;51.120;17.024;2023-03-03T01:29:00;53.1;;;30.0;;
68319;SDS011;55168;51.120;17.024;2023-03-03T01:30:01;53.1;;;30.0;;
68319;SDS011;55168;51.120;17.024;2023-03-03T01:31:01;53.1;;;30.0;;
68319;SDS011;55168;51.120;17.024;2023-03-03T01:32:00;53.6;;;30.3;;
68319;SDS011;55168;51.120;17.024;2023-03-03T01:33:00;53.6;;;30.3;;
68319;SDS011;55168;51.120;17.024;2023-03-03T01:34:00;53.6;;;30.3;;
68319;SDS011;55168;51.120;17.024;2023-03-03T01:35:00;53.6;;;30.3;;
68319;SDS011;55168;51.120;17.024;2023-03-03T01:36:00;53.6;;;30.3;;
68319;SDS011;55168;51.120;17.024;2023-03-03T01:37:00;56.5;;;31.1;;
68319;SDS011;55168;51.120;17.024;2023-03-03T01:38:00;56.5;;;31.1;;
68319;SDS011;55168;51.120;17.024;2023-03-03T01:39:00;56.5;;;31.1;;
68319;SDS011;55168;51.120;17.024;2023-03-03T01:40:00;56.5;;;31.1;;
68319;SDS011;55168;51.120;17.024;2023-03-03T01:41:01;56.5;;;31.1;;
68319;SDS011;55168;51.120;17.024;2023-03-03T01:42:02;55.1;;;31.2;;
68319;SDS011;55168;51.120;17.024;2023-03-03T01:43:00;55.1;;;31.2;;
68319;SDS011;55168;51.120;17.024;2023-03-03T01:44:01;55.1;;;31.2;;
68319;SDS011;55168;51.120;17.024;2023-03-03T01:45:12;55.1;;;31.2;;
68319;SDS011;55168;51.120;17.024;2023-03-03T01:47:07;56.3;;;30.4;;
68319;SDS011;55168;51.120;17.024;2023-03-03T01:48:03;56.3;;;30.4;;
68319;SDS011;55168;51.120;17.024;2023-03-03T01:49:05;56.3;;;30.4;;
68319;SDS011;55168;51.120;17.024;2023-03-03T01:50:05;56.3;;;30.4;;
68319;SDS011;55168;51.120;17.024;2023-03-03T01:51:03;56.3;;;30.4;;
68319;SDS011;55168;51.120;17.024;2023-03-03T01:52:03;58.6;;;31.2;;
68319;SDS011;55168;51.120;17.024;2023-03-03T01:53:03;58.6;;;31.2;;
68319;SDS011;55168;51.120;17.024;2023-03-03T01:54:03;58.6;;;31.2;;
68319;SDS011;55168;51.120;17.024;2023-03-03T01:55:04;58.6;;;31.2;;
68319;SDS011;55168;51.120;17.024;2023-03-03T01:56:02;58.6;;;31.2;;
68319;SDS011;55168;51.120;17.024;2023-03-03T01:57:04;59.5;;;32.0;;
68319;SDS011;55168;51.120;17.024;2023-03-03T01:58:06;59.5;;;32.0;;
68319;SDS011;55168;51.120;17.024;2023-03-03T01:59:03;59.5;;;32.0;;
68319;SDS011;55168;51.120;17.024;2023-03-03T02:00:01;59.5;;;32.0;;
68319;SDS011;55168;51.120;17.024;2023-03-03T02:01:04;59.5;;;32.0;;
68319;SDS011;55168;51.120;17.024;2023-03-03T02:02:00;55.9;;;31.2;;
68319;SDS011;55168;51.120;17.024;2023-03-03T02:03:00;55.9;;;31.2;;
68319;SDS011;55168;51.120;17.024;2023-03-03T02:04:00;55.9;;;31.2;;
68319;SDS011;55168;51.120;17.024;2023-03-03T02:05:00;55.9;;;31.2;;
68319;SDS011;55168;51.120;17.024;2023-03-03T02:06:05;55.9;;;31.2;;
68319;SDS011;55168;51.120;17.024;2023-03-03T02:07:04;58.3;;;30.6;;
68319;SDS011;55168;51.120;17.024;2023-03-03T02:08:00;58.3;;;30.6;;
68319;SDS011;55168;51.120;17.024;2023-03-03T02:10:06;58.3;;;30.6;;
68319;SDS011;55168;51.120;17.024;2023-03-03T02:11:01;58.3;;;30.6;;
68319;SDS011;55168;51.120;17.024;2023-03-03T02:12:04;52.2;;;29.4;;
68319;SDS011;55168;51.120;17.024;2023-03-03T02:13:00;52.2;;;29.4;;
68319;SDS011;55168;51.120;17.024;2023-03-03T02:14:00;52.2;;;29.4;;
68319;SDS011;55168;51.120;17.024;2023-03-03T02:15:00;52.2;;;29.4;;
68319;SDS011;55168;51.120;17.024;2023-03-03T02:16:00;52.2;;;29.4;;
68319;SDS011;55168;51.120;17.024;2023-03-03T02:17:00;53.9;;;30.5;;
68319;SDS011;55168;51.120;17.024;2023-03-03T02:18:04;53.9;;;30.5;;
68319;SDS011;55168;51.120;17.024;2023-03-03T02:19:00;53.9;;;30.5;;
68319;SDS011;55168;51.120;17.024;2023-03-03T02:20:11;53.9;;;30.5;;
68319;SDS011;55168;51.120;17.024;2023-03-03T02:21:13;53.9;;;30.5;;
68319;SDS011;55168;51.120;17.024;2023-03-03T02:22:00;53.0;;;29.6;;
68319;SDS011;55168;51.120;17.024;2023-03-03T02:24:26;53.0;;;29.6;;
68319;SDS011;55168;51.120;17.024;2023-03-03T02:25:02;53.0;;;29.6;;
68319;SDS011;55168;51.120;17.024;2023-03-03T02:26:06;53.0;;;29.6;;
68319;SDS011;55168;51.120;17.024;2023-03-03T02:27:00;47.3;;;29.1;;
68319;SDS011;55168;51.120;17.024;2023-03-03T02:28:00;47.3;;;29.1;;
68319;SDS011;55168;51.120;17.024;2023-03-03T02:29:00;47.3;;;29.1;;
68319;SDS011;55168;51.120;17.024;2023-03-03T02:30:11;47.3;;;29.1;;
68319;SDS011;55168;51.120;17.024;2023-03-03T02:31:01;47.3;;;29.1;;
68319;SDS011;55168;51.120;17.024;2023-03-03T02:32:00;51.1;;;29.9;;
68319;SDS011;55168;51.120;17.024;2023-03-03T02:33:00;51.1;;;29.9;;
68319;SDS011;55168;51.120;17.024;2023-03-03T02:34:00;51.1;;;29.9;;
68319;SDS011;55168;51.120;17.024;2023-03-03T02:35:00;51.1;;;29.9;;
68319;SDS011;55168;51.120;17.024;2023-03-03T02:36:00;51.1;;;29.9;;
68319;SDS011;55168;51.120;17.024;2023-03-03T02:37:02;53.0;;;29.5;;
68319;SDS011;55168;51.120;17.024;2023-03-03T02:38:06;53.0;;;29.5;;
68319;SDS011;55168;51.120;17.024;2023-03-03T02:39:25;53.0;;;29.5;;
68319;SDS011;55168;51.120;17.024;2023-03-03T02:40:00;53.0;;;29.5;;
68319;SDS011;55168;51.120;17.024;2023-03-03T02:41:15;53.0;;;29.5;;
68319;SDS011;55168;51.120;17.024;2023-03-03T02:42:05;55.5;;;30.5;;
68319;SDS011;55168;51.120;17.024;2023-03-03T02:43:01;55.5;;;30.5;;
68319;SDS011;55168;51.120;17.024;2023-03-03T02:44:09;55.5;;;30.5;;
68319;SDS011;55168;51.120;17.024;2023-03-03T02:45:00;55.5;;;30.5;;
68319;SDS011;55168;51.120;17.024;2023-03-03T02:46:00;55.5;;;30.5;;
68319;SDS011;55168;51.120;17.024;2023-03-03T02:47:00;51.6;;;29.7;;
68319;SDS011;55168;51.120;17.024;2023-03-03T02:48:00;51.6;;;29.7;;
68319;SDS011;55168;51.120;17.024;2023-03-03T02:49:01;51.6;;;29.7;;
68319;SDS011;55168;51.120;17.024;2023-03-03T02:50:00;51.6;;;29.7;;
68319;SDS011;55168;51.120;17.024;2023-03-03T02:51:00;51.6;;;29.7;;
68319;SDS011;55168;51.120;17.024;2023-03-03T02:52:02;54.8;;;29.9;;
68319;SDS011;55168;51.120;17.024;2023-03-03T02:53:00;54.8;;;29.9;;
68319;SDS011;55168;51.120;17.024;2023-03-03T02:54:00;54.8;;;29.9;;
68319;SDS011;55168;51.120;17.024;2023-03-03T02:55:00;54.8;;;29.9;;
68319;SDS011;55168;51.120;17.024;2023-03-03T02:56:00;54.8;;;29.9;;
68319;SDS011;55168;51.120;17.024;2023-03-03T02:57:00;55.6;;;30.9;;
68319;SDS011;55168;51.120;17.024;2023-03-03T02:58:00;55.6;;;30.9;;
68319;SDS011;55168;51.120;17.024;2023-03-03T02:59:00;55.6;;;30.9;;
68319;SDS011;55168;51.120;17.024;2023-03-03T03:00:00;55.6;;;30.9;;
68319;SDS011;55168;51.120;17.024;2023-03-03T03:01:00;55.6;;;30.9;;
68319;SDS011;55168;51.120;17.024;2023-03-03T03:02:00;52.1;;;29.8;;
68319;SDS011;55168;51.120;17.024;2023-03-03T03:03:00;52.1;;;29.8;;
68319;SDS011;55168;51.120;17.024;2023-03-03T03:04:00;52.1;;;29.8;;
68319;SDS011;55168;51.120;17.024;2023-03-03T03:05:00;52.1;;;29.8;;
68319;SDS011;55168;51.120;17.024;2023-03-03T03:06:00;52.1;;;29.8;;
68319;SDS011;55168;51.120;17.024;2023-03-03T03:07:00;62.4;;;30.4;;
68319;SDS011;55168;51.120;17.024;2023-03-03T03:08:00;62.4;;;30.4;;
68319;SDS011;55168;51.120;17.024;2023-03-03T03:09:00;62.4;;;30.4;;
68319;SDS011;55168;51.120;17.024;2023-03-03T03:10:00;62.4;;;30.4;;
68319;SDS011;55168;51.120;17.024;2023-03-03T03:11:00;62.4;;;30.4;;
68319;SDS011;55168;51.120;17.024;2023-03-03T03:12:00;62.1;;;28.3;;
68319;SDS011;55168;51.120;17.024;2023-03-03T03:13:00;62.1;;;28.3;;
68319;SDS011;55168;51.120;17.024;2023-03-03T03:14:00;62.1;;;28.3;;
68319;SDS011;55168;51.120;17.024;2023-03-03T03:15:00;62.1;;;28.3;;
68319;SDS011;55168;51.120;17.024;2023-03-03T03:16:00;62.1;;;28.3;;
68319;SDS011;55168;51.120;17.024;2023-03-03T03:17:00;59.5;;;28.9;;
68319;SDS011;55168;51.120;17.024;2023-03-03T03:18:00;59.5;;;28.9;;
68319;SDS011;55168;51.120;17.024;2023-03-03T03:19:01;59.5;;;28.9;;
68319;SDS011;55168;51.120;17.024;2023-03-03T03:20:00;59.5;;;28.9;;
68319;SDS011;55168;51.120;17.024;2023-03-03T03:21:09;49.5;;;28.5;;
68319;SDS011;55168;51.120;17.024;2023-03-03T03:22:00;49.5;;;28.5;;
68319;SDS011;55168;51.120;17.024;2023-03-03T03:23:00;49.5;;;28.5;;
68319;SDS011;55168;51.120;17.024;2023-03-03T03:24:00;49.5;;;28.5;;
68319;SDS011;55168;51.120;17.024;2023-03-03T03:25:00;49.5;;;28.5;;
68319;SDS011;55168;51.120;17.024;2023-03-03T03:26:00;49.5;;;28.5;;
68319;SDS011;55168;51.120;17.024;2023-03-03T03:27:00;50.9;;;29.2;;
68319;SDS011;55168;51.120;17.024;2023-03-03T03:28:00;50.9;;;29.2;;
68319;SDS011;55168;51.120;17.024;2023-03-03T03:29:00;50.9;;;29.2;;
68319;SDS011;55168;51.120;17.024;2023-03-03T03:30:00;50.9;;;29.2;;
68319;SDS011;55168;51.120;17.024;2023-03-03T03:31:01;50.9;;;29.2;;
68319;SDS011;55168;51.120;17.024;2023-03-03T03:32:00;55.8;;;29.6;;
68319;SDS011;55168;51.120;17.024;2023-03-03T03:33:00;55.8;;;29.6;;
68319;SDS011;55168;51.120;17.024;2023-03-03T03:34:00;55.8;;;29.6;;
68319;SDS011;55168;51.120;17.024;2023-03-03T03:35:00;55.8;;;29.6;;
68319;SDS011;55168;51.120;17.024;2023-03-03T03:36:00;52.4;;;29.7;;
68319;SDS011;55168;51.120;17.024;2023-03-03T03:37:00;52.4;;;29.7;;
68319;SDS011;55168;51.120;17.024;2023-03-03T03:38:00;52.4;;;29.7;;
68319;SDS011;55168;51.120;17.024;2023-03-03T03:39:00;52.4;;;29.7;;
68319;SDS011;55168;51.120;17.024;2023-03-03T03:40:00;52.4;;;29.7;;
68319;SDS011;55168;51.120;17.024;2023-03-03T03:41:00;50.5;;;29.9;;
68319;SDS011;55168;51.120;17.024;2023-03-03T03:42:00;50.5;;;29.9;;
68319;SDS011;55168;51.120;17.024;2023-03-03T03:43:00;50.5;;;29.9;;
68319;SDS011;55168;51.120;17.024;2023-03-03T03:44:00;50.5;;;29.9;;
68319;SDS011;55168;51.120;17.024;2023-03-03T03:45:00;50.5;;;29.9;;
68319;SDS011;55168;51.120;17.024;2023-03-03T03:46:00;53.8;;;29.5;;
68319;SDS011;55168;51.120;17.024;2023-03-03T03:47:00;53.8;;;29.5;;
68319;SDS011;55168;51.120;17.024;2023-03-03T03:48:00;53.8;;;29.5;;
68319;SDS011;55168;51.120;17.024;2023-03-03T03:49:00;53.8;;;29.5;;
68319;SDS011;55168;51.120;17.024;2023-03-03T03:50:00;53.8;;;29.5;;
68319;SDS011;55168;51.120;17.024;2023-03-03T03:51:00;50.8;;;28.7;;
68319;SDS011;55168;51.120;17.024;2023-03-03T03:52:00;50.8;;;28.7;;
68319;SDS011;55168;51.120;17.024;2023-03-03T03:53:00;50.8;;;28.7;;
68319;SDS011;55168;51.120;17.024;2023-03-03T03:54:00;50.8;;;28.7;;
68319;SDS011;55168;51.120;17.024;2023-03-03T03:55:00;50.8;;;28.7;;
68319;SDS011;55168;51.120;17.024;2023-03-03T03:56:00;51.4;;;29.3;;
68319;SDS011;55168;51.120;17.024;2023-03-03T03:57:01;51.4;;;29.3;;
68319;SDS011;55168;51.120;17.024;2023-03-03T03:58:00;51.4;;;29.3;;
68319;SDS011;55168;51.120;17.024;2023-03-03T03:59:00;51.4;;;29.3;;
68319;SDS011;55168;51.120;17.024;2023-03-03T04:00:00;51.4;;;29.3;;
68319;SDS011;55168;51.120;17.024;2023-03-03T04:01:01;50.3;;;29.3;;
68319;SDS011;55168;51.120;17.024;2023-03-03T04:02:00;50.3;;;29.3;;
68319;SDS011;55168;51.120;17.024;2023-03-03T04:03:00;50.3;;;29.3;;
68319;SDS011;55168;51.120;17.024;2023-03-03T04:04:00;50.3;;;29.3;;
68319;SDS011;55168;51.120;17.024;2023-03-03T04:05:00;50.3;;;29.3;;
68319;SDS011;55168;51.120;17.024;2023-03-03T04:06:00;54.8;;;29.6;;
68319;SDS011;55168;51.120;17.024;2023-03-03T04:07:00;54.8;;;29.6;;
68319;SDS011;55168;51.120;17.024;2023-03-03T04:08:00;54.8;;;29.6;;
68319;SDS011;55168;51.120;17.024;2023-03-03T04:09:00;54.8;;;29.6;;
68319;SDS011;55168;51.120;17.024;2023-03-03T04:10:00;54.8;;;29.6;;
68319;SDS011;55168;51.120;17.024;2023-03-03T04:11:00;52.0;;;29.9;;
68319;SDS011;55168;51.120;17.024;2023-03-03T04:12:00;52.0;;;29.9;;
68319;SDS011;55168;51.120;17.024;2023-03-03T04:13:00;52.0;;;29.9;;
68319;SDS011;55168;51.120;17.024;2023-03-03T04:14:00;52.0;;;29.9;;
68319;SDS011;55168;51.120;17.024;2023-03-03T04:15:00;52.0;;;29.9;;
68319;SDS011;55168;51.120;17.024;2023-03-03T04:16:00;58.0;;;31.1;;
68319;SDS011;55168;51.120;17.024;2023-03-03T04:17:00;58.0;;;31.1;;
68319;SDS011;55168;51.120;17.024;2023-03-03T04:18:00;58.0;;;31.1;;
68319;SDS011;55168;51.120;17.024;2023-03-03T04:19:00;58.0;;;31.1;;
68319;SDS011;55168;51.120;17.024;2023-03-03T04:20:00;58.0;;;31.1;;
68319;SDS011;55168;51.120;17.024;2023-03-03T04:21:00;56.7;;;32.0;;
68319;SDS011;55168;51.120;17.024;2023-03-03T04:22:00;56.7;;;32.0;;
68319;SDS011;55168;51.120;17.024;2023-03-03T04:23:00;56.7;;;32.0;;
68319;SDS011;55168;51.120;17.024;2023-03-03T04:24:00;56.7;;;32.0;;
68319;SDS011;55168;51.120;17.024;2023-03-03T04:25:02;56.7;;;32.0;;
68319;SDS011;55168;51.120;17.024;2023-03-03T04:26:00;53.7;;;29.7;;
68319;SDS011;55168;51.120;17.024;2023-03-03T04:27:00;53.7;;;29.7;;
68319;SDS011;55168;51.120;17.024;2023-03-03T04:28:00;53.7;;;29.7;;
68319;SDS011;55168;51.120;17.024;2023-03-03T04:29:00;53.7;;;29.7;;
68319;SDS011;55168;51.120;17.024;2023-03-03T04:30:01;53.7;;;29.7;;
68319;SDS011;55168;51.120;17.024;2023-03-03T04:31:00;46.3;;;26.8;;
68319;SDS011;55168;51.120;17.024;2023-03-03T04:32:00;46.3;;;26.8;;
68319;SDS011;55168;51.120;17.024;2023-03-03T04:33:00;46.3;;;26.8;;
68319;SDS011;55168;51.120;17.024;2023-03-03T04:34:00;46.3;;;26.8;;
68319;SDS011;55168;51.120;17.024;2023-03-03T04:35:00;46.3;;;26.8;;
68319;SDS011;55168;51.120;17.024;2023-03-03T04:36:00;41.8;;;24.3;;
68319;SDS011;55168;51.120;17.024;2023-03-03T04:37:00;41.8;;;24.3;;
68319;SDS011;55168;51.120;17.024;2023-03-03T04:38:00;41.8;;;24.3;;
68319;SDS011;55168;51.120;17.024;2023-03-03T04:39:00;41.8;;;24.3;;
68319;SDS011;55168;51.120;17.024;2023-03-03T04:40:00;41.8;;;24.3;;
68319;SDS011;55168;51.120;17.024;2023-03-03T04:41:00;34.8;;;21.6;;
68319;SDS011;55168;51.120;17.024;2023-03-03T04:42:00;34.8;;;21.6;;
68319;SDS011;55168;51.120;17.024;2023-03-03T04:43:00;34.8;;;21.6;;
68319;SDS011;55168;51.120;17.024;2023-03-03T04:44:00;34.8;;;21.6;;
68319;SDS011;55168;51.120;17.024;2023-03-03T04:45:00;34.8;;;21.6;;
68319;SDS011;55168;51.120;17.024;2023-03-03T04:46:00;36.3;;;21.7;;
68319;SDS011;55168;51.120;17.024;2023-03-03T04:47:00;36.3;;;21.7;;
68319;SDS011;55168;51.120;17.024;2023-03-03T04:48:00;36.3;;;21.7;;
68319;SDS011;55168;51.120;17.024;2023-03-03T04:49:00;36.3;;;21.7;;
68319;SDS011;55168;51.120;17.024;2023-03-03T04:50:00;36.3;;;21.7;;
68319;SDS011;55168;51.120;17.024;2023-03-03T04:51:00;33.9;;;20.9;;
68319;SDS011;55168;51.120;17.024;2023-03-03T04:52:00;33.9;;;20.9;;
68319;SDS011;55168;51.120;17.024;2023-03-03T04:53:00;33.9;;;20.9;;
68319;SDS011;55168;51.120;17.024;2023-03-03T04:54:00;33.9;;;20.9;;
68319;SDS011;55168;51.120;17.024;2023-03-03T04:55:00;33.9;;;20.9;;
68319;SDS011;55168;51.120;17.024;2023-03-03T04:56:00;33.8;;;19.9;;
68319;SDS011;55168;51.120;17.024;2023-03-03T04:57:00;33.8;;;19.9;;
68319;SDS011;55168;51.120;17.024;2023-03-03T04:58:00;33.8;;;19.9;;
68319;SDS011;55168;51.120;17.024;2023-03-03T04:59:00;33.8;;;19.9;;
68319;SDS011;55168;51.120;17.024;2023-03-03T05:00:00;33.8;;;19.9;;
68319;SDS011;55168;51.120;17.024;2023-03-03T05:01:00;33.2;;;20.7;;
68319;SDS011;55168;51.120;17.024;2023-03-03T05:02:00;33.2;;;20.7;;
68319;SDS011;55168;51.120;17.024;2023-03-03T05:03:00;33.2;;;20.7;;
68319;SDS011;55168;51.120;17.024;2023-03-03T05:04:00;33.2;;;20.7;;
68319;SDS011;55168;51.120;17.024;2023-03-03T05:05:00;33.2;;;20.7;;
68319;SDS011;55168;51.120;17.024;2023-03-03T05:06:00;35.7;;;19.9;;
68319;SDS011;55168;51.120;17.024;2023-03-03T05:07:00;35.7;;;19.9;;
68319;SDS011;55168;51.120;17.024;2023-03-03T05:08:00;35.7;;;19.9;;
68319;SDS011;55168;51.120;17.024;2023-03-03T05:09:00;35.7;;;19.9;;
68319;SDS011;55168;51.120;17.024;2023-03-03T05:10:00;35.7;;;19.9;;
68319;SDS011;55168;51.120;17.024;2023-03-03T05:11:00;31.6;;;18.9;;
68319;SDS011;55168;51.120;17.024;2023-03-03T05:12:00;31.6;;;18.9;;
68319;SDS011;55168;51.120;17.024;2023-03-03T05:13:00;31.6;;;18.9;;
68319;SDS011;55168;51.120;17.024;2023-03-03T05:14:00;31.6;;;18.9;;
68319;SDS011;55168;51.120;17.024;2023-03-03T05:15:00;31.6;;;18.9;;
68319;SDS011;55168;51.120;17.024;2023-03-03T05:16:00;28.6;;;17.6;;
68319;SDS011;55168;51.120;17.024;2023-03-03T05:17:00;28.6;;;17.6;;
68319;SDS011;55168;51.120;17.024;2023-03-03T05:18:00;28.6;;;17.6;;
68319;SDS011;55168;51.120;17.024;2023-03-03T05:19:00;28.6;;;17.6;;
68319;SDS011;55168;51.120;17.024;2023-03-03T05:20:00;28.6;;;17.6;;
68319;SDS011;55168;51.120;17.024;2023-03-03T05:21:00;28.3;;;16.9;;
68319;SDS011;55168;51.120;17.024;2023-03-03T05:22:00;28.3;;;16.9;;
68319;SDS011;55168;51.120;17.024;2023-03-03T05:23:00;28.3;;;16.9;;
68319;SDS011;55168;51.120;17.024;2023-03-03T05:24:00;28.3;;;16.9;;
68319;SDS011;55168;51.120;17.024;2023-03-03T05:25:00;28.3;;;16.9;;
68319;SDS011;55168;51.120;17.024;2023-03-03T05:26:00;29.7;;;17.4;;
68319;SDS011;55168;51.120;17.024;2023-03-03T05:27:00;29.7;;;17.4;;
68319;SDS011;55168;51.120;17.024;2023-03-03T05:28:00;29.7;;;17.4;;
68319;SDS011;55168;51.120;17.024;2023-03-03T05:29:00;29.7;;;17.4;;
68319;SDS011;55168;51.120;17.024;2023-03-03T05:30:00;29.7;;;17.4;;
68319;SDS011;55168;51.120;17.024;2023-03-03T05:31:00;25.3;;;15.6;;
68319;SDS011;55168;51.120;17.024;2023-03-03T05:32:00;25.3;;;15.6;;
68319;SDS011;55168;51.120;17.024;2023-03-03T05:33:00;25.3;;;15.6;;
68319;SDS011;55168;51.120;17.024;2023-03-03T05:34:00;25.3;;;15.6;;
68319;SDS011;55168;51.120;17.024;2023-03-03T05:35:00;25.3;;;15.6;;
68319;SDS011;55168;51.120;17.024;2023-03-03T05:36:00;27.0;;;15.4;;
68319;SDS011;55168;51.120;17.024;2023-03-03T05:37:00;27.0;;;15.4;;
68319;SDS011;55168;51.120;17.024;2023-03-03T05:38:00;27.0;;;15.4;;
68319;SDS011;55168;51.120;17.024;2023-03-03T05:39:00;27.0;;;15.4;;
68319;SDS011;55168;51.120;17.024;2023-03-03T05:40:00;27.0;;;15.4;;
68319;SDS011;55168;51.120;17.024;2023-03-03T05:41:00;24.5;;;14.9;;
68319;SDS011;55168;51.120;17.024;2023-03-03T05:42:00;24.5;;;14.9;;
68319;SDS011;55168;51.120;17.024;2023-03-03T05:43:00;24.5;;;14.9;;
68319;SDS011;55168;51.120;17.024;2023-03-03T05:44:00;24.5;;;14.9;;
68319;SDS011;55168;51.120;17.024;2023-03-03T05:45:00;24.5;;;14.9;;
68319;SDS011;55168;51.120;17.024;2023-03-03T05:46:00;25.7;;;16.3;;
68319;SDS011;55168;51.120;17.024;2023-03-03T05:47:00;25.7;;;16.3;;
68319;SDS011;55168;51.120;17.024;2023-03-03T05:48:00;25.7;;;16.3;;
68319;SDS011;55168;51.120;17.024;2023-03-03T05:49:00;25.7;;;16.3;;
68319;SDS011;55168;51.120;17.024;2023-03-03T05:50:00;25.7;;;16.3;;
68319;SDS011;55168;51.120;17.024;2023-03-03T05:51:00;26.1;;;16.5;;
68319;SDS011;55168;51.120;17.024;2023-03-03T05:52:00;26.1;;;16.5;;
68319;SDS011;55168;51.120;17.024;2023-03-03T05:53:00;26.1;;;16.5;;
68319;SDS011;55168;51.120;17.024;2023-03-03T05:54:00;26.1;;;16.5;;
68319;SDS011;55168;51.120;17.024;2023-03-03T05:55:00;26.1;;;16.5;;
68319;SDS011;55168;51.120;17.024;2023-03-03T05:56:00;27.2;;;15.9;;
68319;SDS011;55168;51.120;17.024;2023-03-03T05:57:00;27.2;;;15.9;;
68319;SDS011;55168;51.120;17.024;2023-03-03T05:58:00;27.2;;;15.9;;
68319;SDS011;55168;51.120;17.024;2023-03-03T05:59:00;27.2;;;15.9;;
68319;SDS011;55168;51.120;17.024;2023-03-03T06:00:02;27.2;;;15.9;;
68319;SDS011;55168;51.120;17.024;2023-03-03T06:01:00;23.6;;;15.2;;
68319;SDS011;55168;51.120;17.024;2023-03-03T06:02:00;23.6;;;15.2;;
68319;SDS011;55168;51.120;17.024;2023-03-03T06:03:00;23.6;;;15.2;;
68319;SDS011;55168;51.120;17.024;2023-03-03T06:04:00;23.6;;;15.2;;
68319;SDS011;55168;51.120;17.024;2023-03-03T06:05:00;23.6;;;15.2;;